createdAt,value
2022-09-20T00:00:26.249Z,74.88
2022-09-20T00:01:23.534Z,74.87
2022-09-20T00:01:56.759Z,74.95
2022-09-20T00:02:29.832Z,74.87
2022-09-20T00:03:02.939Z,74.78
2022-09-20T00:03:38.632Z,74.84
2022-09-20T00:04:11.716Z,74.77
2022-09-20T00:04:44.829Z,74.70
2022-09-20T00:05:18.074Z,74.64
2022-09-20T00:05:51.312Z,74.87
2022-09-20T00:06:27.459Z,74.74
2022-09-20T00:07:00.508Z,74.75
2022-09-20T00:07:33.774Z,74.76
2022-09-20T00:08:10.596Z,74.85
2022-09-20T00:08:44.640Z,74.96
2022-09-20T00:09:17.742Z,74.93
2022-09-20T00:09:51.314Z,74.92
2022-09-20T00:10:24.802Z,74.81
2022-09-20T00:11:02.641Z,74.83
2022-09-20T00:11:37.279Z,74.89
2022-09-20T00:12:10.808Z,74.87
2022-09-20T00:12:44.076Z,74.88
2022-09-20T00:13:17.249Z,74.88
2022-09-20T00:13:53.338Z,74.92
2022-09-20T00:14:26.371Z,74.75
2022-09-20T00:14:59.386Z,74.67
2022-09-20T00:15:33.632Z,74.84
2022-09-20T00:16:09.692Z,74.80
2022-09-20T00:16:43.090Z,74.83
2022-09-20T00:17:16.346Z,74.87
2022-09-20T00:17:49.566Z,74.77
2022-09-20T00:18:22.950Z,74.93
2022-09-20T00:18:58.244Z,74.86
2022-09-20T00:19:31.412Z,74.93
2022-09-20T00:20:04.822Z,74.95
2022-09-20T00:20:45.358Z,74.98
2022-09-20T00:21:21.303Z,74.92
2022-09-20T00:21:54.347Z,74.95
2022-09-20T00:22:27.943Z,75.08
2022-09-20T00:23:01.060Z,74.98
2022-09-20T00:23:36.196Z,75.02
2022-09-20T00:24:11.054Z,75.00
2022-09-20T00:24:48.731Z,75.01
2022-09-20T00:25:22.756Z,74.97
2022-09-20T00:26:01.697Z,74.96
2022-09-20T00:26:34.861Z,75.00
2022-09-20T00:27:07.971Z,75.05
2022-09-20T00:27:41.163Z,75.02
2022-09-20T00:28:14.383Z,74.99
2022-09-20T00:28:47.698Z,75.01
2022-09-20T00:29:20.846Z,75.05
2022-09-20T00:29:54.072Z,75.03
2022-09-20T00:30:27.400Z,74.91
2022-09-20T00:31:01.230Z,74.94
2022-09-20T00:31:35.865Z,74.95
2022-09-20T00:32:09.057Z,75.00
2022-09-20T00:32:42.131Z,75.00
2022-09-20T00:33:15.584Z,75.00
2022-09-20T00:34:07.534Z,75.07
2022-09-20T00:34:59.481Z,75.06
2022-09-20T00:35:33.362Z,75.09
2022-09-20T00:36:06.492Z,75.01
2022-09-20T00:36:39.653Z,75.21
2022-09-20T00:37:12.729Z,75.21
2022-09-20T00:37:45.846Z,75.13
2022-09-20T00:38:20.705Z,75.13
2022-09-20T00:38:59.034Z,75.18
2022-09-20T00:39:32.249Z,75.25
2022-09-20T00:40:07.927Z,75.12
2022-09-20T00:40:42.851Z,75.24
2022-09-20T00:41:17.044Z,75.22
2022-09-20T00:41:50.029Z,75.14
2022-09-20T00:42:28.799Z,75.21
2022-09-20T00:43:01.915Z,75.38
2022-09-20T00:43:41.235Z,75.22
2022-09-20T00:44:56.211Z,75.28
2022-09-20T00:45:30.785Z,75.32
2022-09-20T00:46:05.356Z,75.37
2022-09-20T00:46:43.876Z,75.44
2022-09-20T00:47:25.119Z,75.40
2022-09-20T00:48:13.250Z,75.42
2022-09-20T00:48:47.101Z,75.40
2022-09-20T00:49:27.025Z,75.39
2022-09-20T00:50:24.556Z,75.46
2022-09-20T00:51:07.810Z,75.47
2022-09-20T00:51:46.570Z,75.42
2022-09-20T00:52:20.833Z,75.41
2022-09-20T00:53:07.677Z,75.54
2022-09-20T00:53:45.349Z,75.40
2022-09-20T00:54:20.958Z,75.38
2022-09-20T00:54:54.920Z,75.44
2022-09-20T00:55:29.464Z,75.44
2022-09-20T00:56:09.354Z,75.62
2022-09-20T00:56:44.342Z,75.59
2022-09-20T00:57:17.812Z,75.54
2022-09-20T00:57:51.438Z,75.69
2022-09-20T00:58:27.705Z,75.71
2022-09-20T00:59:19.050Z,75.71
2022-09-20T00:59:54.241Z,75.76
2022-09-20T01:00:28.243Z,75.78
2022-09-20T01:01:01.740Z,75.76
2022-09-20T01:01:35.717Z,75.74
2022-09-20T01:02:17.099Z,75.80
2022-09-20T01:02:55.453Z,75.70
2022-09-20T01:03:33.341Z,75.65
2022-09-20T01:04:06.606Z,75.66
2022-09-20T01:04:42.775Z,75.71
2022-09-20T01:05:18.936Z,75.70
2022-09-20T01:05:54.126Z,75.74
2022-09-20T01:06:27.967Z,75.80
2022-09-20T01:07:04.752Z,75.79
2022-09-20T01:07:38.395Z,75.80
2022-09-20T01:08:12.340Z,75.87
2022-09-20T01:08:51.009Z,75.91
2022-09-20T01:09:24.160Z,75.89
2022-09-20T01:09:57.700Z,75.85
2022-09-20T01:10:32.698Z,75.94
2022-09-20T01:11:06.108Z,75.89
2022-09-20T01:11:40.991Z,75.86
2022-09-20T01:12:19.458Z,75.95
2022-09-20T01:12:54.033Z,75.96
2022-09-20T01:13:27.137Z,76.05
2022-09-20T01:14:00.107Z,76.08
2022-09-20T01:14:34.752Z,76.00
2022-09-20T01:15:10.334Z,75.97
2022-09-20T01:15:46.935Z,76.04
2022-09-20T01:16:21.712Z,75.97
2022-09-20T01:16:57.875Z,75.89
2022-09-20T01:17:35.029Z,75.86
2022-09-20T01:18:10.322Z,76.02
2022-09-20T01:18:45.267Z,75.99
2022-09-20T01:19:42.915Z,76.06
2022-09-20T01:20:24.184Z,76.01
2022-09-20T01:20:58.660Z,76.17
2022-09-20T01:21:31.792Z,76.14
2022-09-20T01:22:16.107Z,76.16
2022-09-20T01:23:10.805Z,76.12
2022-09-20T01:24:06.910Z,76.16
2022-09-20T01:25:25.281Z,76.12
2022-09-20T01:26:23.348Z,76.14
2022-09-20T01:27:18.396Z,76.09
2022-09-20T01:27:54.012Z,76.15
2022-09-20T01:28:29.029Z,76.20
2022-09-20T01:29:46.602Z,76.17
2022-09-20T01:30:26.228Z,76.15
2022-09-20T01:31:09.117Z,76.17
2022-09-20T01:31:50.547Z,76.21
2022-09-20T01:32:29.850Z,76.27
2022-09-20T01:33:21.778Z,76.26
2022-09-20T01:34:01.439Z,76.33
2022-09-20T01:34:37.215Z,76.38
2022-09-20T01:35:11.893Z,76.45
2022-09-20T01:35:49.798Z,76.43
2022-09-20T01:36:33.712Z,76.49
2022-09-20T01:37:28.638Z,76.47
2022-09-20T01:38:31.281Z,76.44
2022-09-20T01:39:08.772Z,76.49
2022-09-20T01:40:04.430Z,76.47
2022-09-20T01:40:49.255Z,76.49
2022-09-20T01:41:29.378Z,76.55
2022-09-20T01:42:12.615Z,76.54
2022-09-20T01:43:03.358Z,76.58
2022-09-20T01:43:47.226Z,76.53
2022-09-20T01:44:38.768Z,76.57
2022-09-20T01:45:32.571Z,76.69
2022-09-20T01:46:32.954Z,76.67
2022-09-20T01:47:29.190Z,76.74
2022-09-20T01:48:14.211Z,76.76
2022-09-20T01:48:49.658Z,76.76
2022-09-20T01:49:37.939Z,76.70
2022-09-20T01:50:52.930Z,76.60
2022-09-20T01:52:10.474Z,76.71
2022-09-20T01:53:37.599Z,76.63
2022-09-20T01:54:10.623Z,76.77
2022-09-20T01:55:08.635Z,76.78
2022-09-20T01:56:03.399Z,76.81
2022-09-20T01:56:48.682Z,76.86
2022-09-20T01:57:30.752Z,76.90
2022-09-20T01:58:25.141Z,76.95
2022-09-20T01:59:19.906Z,77.07
2022-09-20T01:59:56.757Z,77.18
2022-09-20T02:00:35.243Z,77.17
2022-09-20T02:01:31.348Z,77.14
2022-09-20T02:02:22.733Z,77.27
2022-09-20T02:03:43.696Z,77.24
2022-09-20T02:04:34.969Z,77.28
2022-09-20T02:05:24.370Z,77.35
2022-09-20T02:06:19.235Z,77.40
2022-09-20T02:07:19.212Z,77.30
2022-09-20T02:08:08.318Z,77.32
2022-09-20T02:08:51.007Z,77.30
2022-09-20T02:09:33.003Z,77.41
2022-09-20T02:10:35.501Z,77.37
2022-09-20T02:11:20.999Z,77.40
2022-09-20T02:12:33.689Z,77.40
2022-09-20T02:13:20.701Z,77.41
2022-09-20T02:14:20.747Z,77.50
2022-09-20T02:15:01.179Z,77.42
2022-09-20T02:15:58.616Z,77.41
2022-09-20T02:16:57.222Z,77.46
2022-09-20T02:17:48.477Z,77.40
2022-09-20T02:18:52.520Z,77.43
2022-09-20T02:19:34.604Z,77.43
2022-09-20T02:20:23.689Z,77.30
2022-09-20T02:21:23.319Z,77.45
2022-09-20T02:22:15.104Z,77.34
2022-09-20T02:23:21.082Z,77.37
2022-09-20T02:24:15.926Z,77.38
2022-09-20T02:25:07.300Z,77.45
2022-09-20T02:26:01.357Z,77.50
2022-09-20T02:26:59.022Z,77.46
2022-09-20T02:27:40.979Z,77.64
2022-09-20T02:28:50.018Z,77.58
2022-09-20T02:29:33.866Z,77.50
2022-09-20T02:30:25.469Z,77.54
2022-09-20T02:31:32.802Z,77.51
2022-09-20T02:32:17.824Z,77.48
2022-09-20T02:33:18.122Z,77.51
2022-09-20T02:34:21.171Z,77.47
2022-09-20T02:35:13.489Z,77.55
2022-09-20T02:36:13.694Z,77.66
2022-09-20T02:37:05.547Z,77.67
2022-09-20T02:37:57.063Z,77.68
2022-09-20T02:38:52.522Z,77.86
2022-09-20T02:39:35.750Z,77.74
2022-09-20T02:40:11.910Z,77.77
2022-09-20T02:40:56.881Z,77.68
2022-09-20T02:41:42.641Z,77.77
2022-09-20T02:42:21.538Z,77.78
2022-09-20T02:43:18.075Z,77.79
2022-09-20T02:44:24.872Z,77.84
2022-09-20T02:45:16.396Z,77.89
2022-09-20T02:46:10.974Z,77.89
2022-09-20T02:46:56.456Z,77.75
2022-09-20T02:47:41.683Z,77.66
2022-09-20T02:48:18.238Z,77.67
2022-09-20T02:49:18.179Z,77.78
2022-09-20T02:50:29.169Z,77.83
2022-09-20T02:51:22.479Z,77.96
2022-09-20T02:52:07.673Z,77.88
2022-09-20T02:53:17.976Z,77.90
2022-09-20T02:54:00.131Z,77.92
2022-09-20T02:54:57.949Z,77.99
2022-09-20T02:56:08.657Z,78.02
2022-09-20T02:56:58.971Z,78.06
2022-09-20T02:58:06.348Z,77.99
2022-09-20T02:58:39.403Z,77.82
2022-09-20T02:59:48.571Z,77.98
2022-09-20T03:00:29.458Z,77.87
2022-09-20T03:01:25.814Z,77.91
2022-09-20T03:02:17.456Z,77.99
2022-09-20T03:03:18.113Z,77.91
2022-09-20T03:04:12.470Z,77.90
2022-09-20T03:05:11.546Z,77.99
2022-09-20T03:06:25.942Z,77.97
2022-09-20T03:07:34.324Z,78.03
2022-09-20T03:08:45.660Z,78.08
2022-09-20T03:09:39.209Z,77.96
2022-09-20T03:10:32.376Z,77.87
2022-09-20T03:11:26.591Z,77.97
2022-09-20T03:12:33.530Z,77.89
2022-09-20T03:13:37.598Z,77.95
2022-09-20T03:14:23.464Z,77.97
2022-09-20T03:15:21.230Z,77.85
2022-09-20T03:16:29.623Z,77.85
2022-09-20T03:17:26.732Z,77.97
2022-09-20T03:18:14.965Z,77.98
2022-09-20T03:19:13.002Z,77.97
2022-09-20T03:20:07.661Z,77.99
2022-09-20T03:21:02.342Z,77.93
2022-09-20T03:21:38.130Z,77.99
2022-09-20T03:22:23.201Z,78.01
2022-09-20T03:23:27.067Z,77.98
2022-09-20T03:24:24.049Z,77.94
2022-09-20T03:25:09.228Z,78.00
2022-09-20T03:26:21.451Z,77.98
2022-09-20T03:27:16.204Z,77.95
2022-09-20T03:27:58.193Z,77.94
2022-09-20T03:28:49.583Z,77.93
2022-09-20T03:29:43.179Z,77.97
2022-09-20T03:30:46.689Z,78.07
2022-09-20T03:31:46.005Z,78.10
2022-09-20T03:32:31.468Z,77.99
2022-09-20T03:33:22.676Z,78.16
2022-09-20T03:34:14.252Z,78.11
2022-09-20T03:35:06.646Z,78.08
2022-09-20T03:36:08.842Z,78.15
2022-09-20T03:37:10.061Z,78.14
2022-09-20T03:37:59.690Z,78.06
2022-09-20T03:38:55.514Z,78.17
2022-09-20T03:39:38.385Z,78.08
2022-09-20T03:40:29.876Z,78.07
2022-09-20T03:41:11.937Z,78.12
2022-09-20T03:42:18.322Z,78.11
2022-09-20T03:42:54.805Z,78.15
2022-09-20T03:44:05.553Z,78.10
2022-09-20T03:44:58.921Z,78.07
2022-09-20T03:46:12.773Z,78.01
2022-09-20T03:46:47.498Z,78.15
2022-09-20T03:47:37.195Z,78.13
2022-09-20T03:48:49.586Z,78.13
2022-09-20T03:49:42.188Z,78.18
2022-09-20T03:50:53.221Z,78.20
2022-09-20T03:51:41.691Z,78.17
2022-09-20T03:52:59.736Z,78.14
2022-09-20T03:54:04.373Z,78.13
2022-09-20T03:54:57.672Z,78.19
2022-09-20T03:55:49.622Z,78.13
2022-09-20T03:56:43.982Z,78.24
2022-09-20T03:57:35.941Z,78.27
2022-09-20T03:58:31.053Z,78.18
2022-09-20T03:59:25.959Z,78.17
2022-09-20T04:00:05.790Z,78.25
2022-09-20T04:01:16.532Z,78.39
2022-09-20T04:02:08.009Z,78.26
2022-09-20T04:03:18.707Z,78.23
2022-09-20T04:04:05.930Z,78.19
2022-09-20T04:04:53.889Z,78.21
2022-09-20T04:05:51.273Z,78.26
2022-09-20T04:07:03.068Z,78.22
2022-09-20T04:07:48.377Z,78.13
2022-09-20T04:08:47.892Z,78.18
2022-09-20T04:09:38.848Z,78.33
2022-09-20T04:10:25.976Z,78.35
2022-09-20T04:11:18.099Z,78.37
2022-09-20T04:12:01.876Z,78.39
2022-09-20T04:12:50.562Z,78.44
2022-09-20T04:13:36.427Z,78.44
2022-09-20T04:14:18.891Z,78.51
2022-09-20T04:15:01.059Z,78.53
2022-09-20T04:15:51.804Z,78.50
2022-09-20T04:16:43.733Z,78.42
2022-09-20T04:17:35.565Z,78.31
2022-09-20T04:18:31.646Z,78.41
2022-09-20T04:19:22.842Z,78.55
2022-09-20T04:20:14.653Z,78.55
2022-09-20T04:20:55.631Z,78.65
2022-09-20T04:21:43.915Z,78.71
2022-09-20T04:22:20.901Z,78.59
2022-09-20T04:22:59.105Z,78.60
2022-09-20T04:23:57.022Z,78.74
2022-09-20T04:24:30.251Z,78.70
2022-09-20T04:25:14.925Z,78.68
2022-09-20T04:25:51.083Z,78.70
2022-09-20T04:26:31.431Z,78.66
2022-09-20T04:27:15.546Z,78.74
2022-09-20T04:28:00.472Z,78.73
2022-09-20T04:28:55.640Z,78.75
2022-09-20T04:29:53.356Z,78.64
2022-09-20T04:30:30.686Z,78.61
2022-09-20T04:31:24.924Z,78.65
2022-09-20T04:32:22.142Z,78.58
2022-09-20T04:33:20.393Z,78.69
2022-09-20T04:33:57.715Z,78.74
2022-09-20T04:34:57.887Z,78.72
2022-09-20T04:36:11.081Z,78.80
2022-09-20T04:36:58.513Z,78.73
2022-09-20T04:37:38.722Z,78.73
2022-09-20T04:38:17.593Z,78.83
2022-09-20T04:39:05.309Z,78.77
2022-09-20T04:40:00.404Z,78.80
2022-09-20T04:40:43.015Z,78.83
2022-09-20T04:41:51.573Z,78.78
2022-09-20T04:43:15.656Z,78.77
2022-09-20T04:44:11.839Z,78.74
2022-09-20T04:45:24.364Z,78.77
2022-09-20T04:46:25.691Z,78.71
2022-09-20T04:47:15.851Z,78.74
2022-09-20T04:48:42.719Z,78.91
2022-09-20T04:49:35.982Z,78.72
2022-09-20T04:50:15.038Z,78.76
2022-09-20T04:51:18.999Z,78.83
2022-09-20T04:52:14.162Z,78.89
2022-09-20T04:53:05.918Z,78.80
2022-09-20T04:54:08.298Z,78.78
2022-09-20T04:54:44.949Z,78.91
2022-09-20T04:55:29.779Z,78.79
2022-09-20T04:56:22.177Z,78.97
2022-09-20T04:57:24.802Z,78.92
2022-09-20T04:58:28.986Z,79.12
2022-09-20T04:59:11.102Z,78.98
2022-09-20T05:00:03.144Z,78.93
2022-09-20T05:01:22.883Z,79.01
2022-09-20T05:02:27.211Z,79.11
2022-09-20T05:03:19.016Z,79.14
2022-09-20T05:04:19.120Z,78.93
2022-09-20T05:05:11.054Z,78.98
2022-09-20T05:06:04.989Z,79.06
2022-09-20T05:06:56.628Z,78.96
2022-09-20T05:07:48.729Z,78.88
2022-09-20T05:08:43.753Z,78.99
2022-09-20T05:09:47.429Z,78.85
2022-09-20T05:10:55.744Z,78.79
2022-09-20T05:11:47.825Z,78.98
2022-09-20T05:12:36.365Z,78.86
2022-09-20T05:13:51.976Z,79.02
2022-09-20T05:14:51.696Z,79.14
2022-09-20T05:15:58.938Z,78.95
2022-09-20T05:16:53.785Z,78.81
2022-09-20T05:18:00.028Z,78.93
2022-09-20T05:19:07.777Z,78.90
2022-09-20T05:19:47.000Z,78.82
2022-09-20T05:20:25.882Z,78.81
2022-09-20T05:21:20.596Z,78.68
2022-09-20T05:22:31.582Z,78.74
2022-09-20T05:23:16.723Z,78.73
2022-09-20T05:24:08.436Z,78.67
2022-09-20T05:25:28.723Z,78.64
2022-09-20T05:26:08.518Z,78.75
2022-09-20T05:26:53.954Z,78.77
2022-09-20T05:27:48.891Z,78.60
2022-09-20T05:28:46.086Z,78.70
2022-09-20T05:29:42.667Z,78.84
2022-09-20T05:30:30.656Z,78.76
2022-09-20T05:31:22.426Z,78.62
2022-09-20T05:32:14.023Z,78.58
2022-09-20T05:33:24.736Z,78.52
2022-09-20T05:34:15.946Z,78.62
2022-09-20T05:35:07.894Z,78.49
2022-09-20T05:35:44.719Z,78.57
2022-09-20T05:36:20.808Z,78.56
2022-09-20T05:37:06.955Z,78.60
2022-09-20T05:38:14.023Z,78.58
2022-09-20T05:39:03.585Z,78.47
2022-09-20T05:40:17.958Z,78.59
2022-09-20T05:41:09.561Z,78.54
2022-09-20T05:42:08.361Z,78.47
2022-09-20T05:43:21.098Z,78.56
2022-09-20T05:44:22.508Z,78.60
2022-09-20T05:44:55.602Z,78.61
2022-09-20T05:45:40.717Z,78.56
2022-09-20T05:46:32.356Z,78.64
2022-09-20T05:47:28.741Z,78.75
2022-09-20T05:48:14.446Z,78.60
2022-09-20T05:48:59.577Z,78.72
2022-09-20T05:50:09.941Z,78.65
2022-09-20T05:50:45.975Z,78.62
2022-09-20T05:51:50.210Z,78.62
2022-09-20T05:52:29.580Z,78.54
2022-09-20T05:53:13.968Z,78.77
2022-09-20T05:54:05.590Z,78.64
2022-09-20T05:54:56.939Z,78.71
2022-09-20T05:55:35.991Z,78.55
2022-09-20T05:56:37.057Z,78.63
2022-09-20T05:57:47.752Z,78.76
2022-09-20T05:58:29.931Z,78.57
2022-09-20T05:59:24.484Z,78.77
2022-09-20T06:00:07.791Z,78.60
2022-09-20T06:00:56.623Z,78.75
2022-09-20T06:01:40.068Z,78.76
2022-09-20T06:02:42.000Z,78.65
2022-09-20T06:03:36.895Z,78.70
2022-09-20T06:04:38.920Z,78.75
2022-09-20T06:05:29.030Z,78.80
2022-09-20T06:06:10.958Z,78.76
2022-09-20T06:07:12.436Z,78.85
2022-09-20T06:08:04.689Z,78.92
2022-09-20T06:08:59.608Z,78.88
2022-09-20T06:09:35.455Z,78.95
2022-09-20T06:10:31.870Z,79.08
2022-09-20T06:11:13.749Z,78.93
2022-09-20T06:12:21.119Z,78.91
2022-09-20T06:13:15.955Z,78.87
2022-09-20T06:14:10.374Z,78.82
2022-09-20T06:15:12.369Z,78.99
2022-09-20T06:16:01.498Z,79.03
2022-09-20T06:16:40.793Z,79.00
2022-09-20T06:17:26.931Z,79.07
2022-09-20T06:18:37.002Z,79.07
2022-09-20T06:19:48.762Z,79.15
2022-09-20T06:20:37.297Z,79.30
2022-09-20T06:21:19.448Z,79.16
2022-09-20T06:22:03.477Z,79.17
2022-09-20T06:22:39.647Z,79.08
2022-09-20T06:23:13.227Z,79.18
2022-09-20T06:23:46.416Z,79.13
2022-09-20T06:24:43.311Z,79.20
2022-09-20T06:25:22.629Z,79.13
2022-09-20T06:26:24.017Z,79.23
2022-09-20T06:27:03.246Z,79.13
2022-09-20T06:27:41.055Z,79.29
2022-09-20T06:28:21.450Z,79.27
2022-09-20T06:29:00.232Z,79.35
2022-09-20T06:29:38.909Z,79.33
2022-09-20T06:30:23.078Z,79.25
2022-09-20T06:30:57.711Z,79.32
2022-09-20T06:31:30.931Z,79.27
2022-09-20T06:32:04.307Z,79.39
2022-09-20T06:33:00.540Z,79.67
2022-09-20T06:33:33.826Z,79.39
2022-09-20T06:34:13.619Z,79.50
2022-09-20T06:34:48.538Z,79.34
2022-09-20T06:35:26.519Z,79.56
2022-09-20T06:36:28.091Z,79.55
2022-09-20T06:38:06.811Z,79.52
2022-09-20T06:39:17.895Z,79.59
2022-09-20T06:40:47.095Z,79.49
2022-09-20T06:41:28.487Z,79.65
2022-09-20T06:42:01.507Z,79.67
2022-09-20T06:42:34.565Z,79.76
2022-09-20T06:43:07.587Z,79.67
2022-09-20T06:43:41.358Z,79.78
2022-09-20T06:44:14.490Z,79.66
2022-09-20T06:44:47.655Z,79.71
2022-09-20T06:45:20.757Z,79.72
2022-09-20T06:45:53.956Z,79.68
2022-09-20T06:46:32.407Z,79.67
2022-09-20T06:47:08.944Z,79.67
2022-09-20T06:47:42.122Z,79.79
2022-09-20T06:48:15.819Z,79.67
2022-09-20T06:48:51.450Z,79.63
2022-09-20T06:49:28.495Z,79.77
2022-09-20T06:50:01.614Z,79.72
2022-09-20T06:50:36.662Z,79.81
2022-09-20T06:51:10.638Z,79.88
2022-09-20T06:51:43.757Z,79.82
2022-09-20T06:52:19.666Z,79.66
2022-09-20T06:52:53.866Z,79.80
2022-09-20T06:53:31.140Z,79.75
2022-09-20T06:54:07.031Z,79.79
2022-09-20T06:54:46.074Z,79.87
2022-09-20T06:55:29.594Z,79.93
2022-09-20T06:56:03.543Z,79.79
2022-09-20T06:56:37.037Z,79.87
2022-09-20T06:57:10.915Z,79.84
2022-09-20T06:57:44.317Z,79.81
2022-09-20T06:58:17.593Z,79.71
2022-09-20T06:58:52.965Z,79.70
2022-09-20T06:59:26.068Z,79.70
2022-09-20T06:59:59.228Z,79.87
2022-09-20T07:00:32.405Z,79.69
2022-09-20T07:01:05.613Z,79.78
2022-09-20T07:01:39.216Z,79.75
2022-09-20T07:02:12.541Z,79.71
2022-09-20T07:02:46.990Z,79.82
2022-09-20T07:03:20.251Z,79.71
2022-09-20T07:03:53.509Z,79.87
2022-09-20T07:04:27.292Z,79.84
2022-09-20T07:05:02.209Z,79.78
2022-09-20T07:05:36.614Z,79.79
2022-09-20T07:06:10.826Z,79.69
2022-09-20T07:06:44.069Z,79.69
2022-09-20T07:07:20.760Z,79.64
2022-09-20T07:07:58.739Z,79.68
2022-09-20T07:08:32.651Z,79.74
2022-09-20T07:09:06.349Z,79.60
2022-09-20T07:09:39.431Z,79.62
2022-09-20T07:10:12.804Z,79.56
2022-09-20T07:10:45.942Z,79.74
2022-09-20T07:11:19.111Z,79.67
2022-09-20T07:11:52.141Z,79.60
2022-09-20T07:12:25.944Z,79.55
2022-09-20T07:13:00.874Z,79.74
2022-09-20T07:13:34.760Z,79.57
2022-09-20T07:14:08.091Z,79.42
2022-09-20T07:14:42.040Z,79.36
2022-09-20T07:15:16.761Z,79.57
2022-09-20T07:15:50.903Z,79.49
2022-09-20T07:16:24.859Z,79.30
2022-09-20T07:16:58.002Z,79.29
2022-09-20T07:17:31.130Z,79.32
2022-09-20T07:18:04.320Z,79.05
2022-09-20T07:18:37.503Z,79.34
2022-09-20T07:19:10.790Z,79.33
2022-09-20T07:19:43.957Z,79.11
2022-09-20T07:20:21.363Z,79.24
2022-09-20T07:20:56.064Z,79.07
2022-09-20T07:21:29.387Z,79.16
2022-09-20T07:22:03.187Z,79.08
2022-09-20T07:22:36.568Z,78.97
2022-09-20T07:23:10.372Z,78.95
2022-09-20T07:23:46.183Z,79.06
2022-09-20T07:24:20.458Z,79.07
2022-09-20T07:24:53.760Z,79.22
2022-09-20T07:25:27.695Z,79.05
2022-09-20T07:26:01.438Z,79.20
2022-09-20T07:26:35.303Z,79.21
2022-09-20T07:27:08.526Z,78.94
2022-09-20T07:27:41.800Z,79.21
2022-09-20T07:28:14.966Z,79.06
2022-09-20T07:28:49.781Z,79.00
2022-09-20T07:29:23.214Z,78.96
2022-09-20T07:29:56.782Z,78.95
2022-09-20T07:30:30.064Z,79.10
2022-09-20T07:31:03.126Z,79.00
2022-09-20T07:31:36.946Z,78.81
2022-09-20T07:32:10.187Z,78.75
2022-09-20T07:32:43.445Z,78.77
2022-09-20T07:33:25.293Z,78.64
2022-09-20T07:33:58.791Z,78.62
2022-09-20T07:34:32.407Z,78.87
2022-09-20T07:35:06.123Z,78.57
2022-09-20T07:35:39.309Z,78.74
2022-09-20T07:36:13.717Z,78.72
2022-09-20T07:36:51.629Z,78.55
2022-09-20T07:37:25.112Z,78.65
2022-09-20T07:37:58.773Z,78.64
2022-09-20T07:38:31.931Z,78.66
2022-09-20T07:39:05.024Z,78.51
2022-09-20T07:39:38.549Z,78.56
2022-09-20T07:40:12.272Z,78.54
2022-09-20T07:40:48.340Z,78.44
2022-09-20T07:41:23.206Z,78.67
2022-09-20T07:41:56.956Z,78.45
2022-09-20T07:42:30.532Z,78.49
2022-09-20T07:43:03.744Z,78.39
2022-09-20T07:43:37.457Z,78.42
2022-09-20T07:44:24.694Z,78.41
2022-09-20T07:44:58.191Z,78.34
2022-09-20T07:45:35.767Z,78.34
2022-09-20T07:46:11.437Z,78.47
2022-09-20T07:46:46.425Z,78.34
2022-09-20T07:47:19.475Z,78.35
2022-09-20T07:47:52.595Z,78.28
2022-09-20T07:48:31.614Z,78.07
2022-09-20T07:49:07.023Z,78.13
2022-09-20T07:49:40.123Z,78.04
2022-09-20T07:50:13.474Z,77.90
2022-09-20T07:50:54.362Z,77.98
2022-09-20T07:51:27.765Z,78.06
2022-09-20T07:52:01.094Z,77.99
2022-09-20T07:52:34.272Z,77.99
2022-09-20T07:53:07.400Z,77.92
2022-09-20T07:53:41.600Z,77.84
2022-09-20T07:54:15.121Z,78.00
2022-09-20T07:54:50.253Z,77.95
2022-09-20T07:55:23.309Z,78.04
2022-09-20T07:55:57.312Z,78.06
2022-09-20T07:56:30.376Z,77.87
2022-09-20T07:57:05.898Z,78.13
2022-09-20T07:57:38.994Z,77.92
2022-09-20T07:58:12.132Z,78.07
2022-09-20T07:58:50.044Z,77.93
2022-09-20T07:59:26.230Z,77.98
2022-09-20T07:59:59.234Z,78.09
2022-09-20T08:00:32.428Z,78.10
2022-09-20T08:01:08.976Z,78.06
2022-09-20T08:01:43.307Z,78.11
2022-09-20T08:02:17.236Z,77.93
2022-09-20T08:02:59.309Z,77.95
2022-09-20T08:03:34.875Z,77.91
2022-09-20T08:04:09.292Z,78.07
2022-09-20T08:04:43.721Z,78.14
2022-09-20T08:05:16.890Z,78.07
2022-09-20T08:05:50.558Z,77.94
2022-09-20T08:06:24.590Z,78.11
2022-09-20T08:06:58.862Z,77.97
2022-09-20T08:07:32.012Z,77.87
2022-09-20T08:08:05.134Z,77.99
2022-09-20T08:08:43.658Z,78.06
2022-09-20T08:09:16.924Z,77.90
2022-09-20T08:09:50.846Z,77.97
2022-09-20T08:10:25.787Z,77.89
2022-09-20T08:11:07.099Z,78.07
2022-09-20T08:11:43.183Z,77.96
2022-09-20T08:14:16.710Z,78.23
2022-09-20T08:14:49.922Z,78.42
2022-09-20T08:15:23.130Z,78.35
2022-09-20T08:16:04.167Z,78.38
2022-09-20T08:16:43.543Z,78.35
2022-09-20T08:17:16.701Z,78.26
2022-09-20T08:17:49.785Z,78.37
2022-09-20T08:18:22.831Z,78.20
2022-09-20T08:18:59.118Z,78.29
2022-09-20T08:19:32.227Z,78.15
2022-09-20T08:20:06.739Z,78.00
2022-09-20T08:20:39.867Z,78.07
2022-09-20T08:21:14.246Z,78.08
2022-09-20T08:21:48.208Z,78.08
2022-09-20T08:22:22.405Z,78.30
2022-09-20T08:23:19.454Z,78.34
2022-09-20T08:23:49.306Z,78.17
2022-09-20T08:24:22.708Z,78.01
2022-09-20T08:24:55.943Z,78.08
2022-09-20T08:25:29.831Z,78.00
2022-09-20T08:26:04.201Z,78.05
2022-09-20T08:26:37.466Z,78.08
2022-09-20T08:27:10.516Z,78.16
2022-09-20T08:27:43.840Z,78.02
2022-09-20T08:28:16.930Z,78.00
2022-09-20T08:28:53.901Z,78.11
2022-09-20T08:29:27.036Z,78.15
2022-09-20T08:30:01.380Z,78.02
2022-09-20T08:30:34.513Z,77.93
2022-09-20T08:31:10.392Z,77.81
2022-09-20T08:31:44.227Z,77.67
2022-09-20T08:32:17.336Z,77.93
2022-09-20T08:32:50.618Z,77.80
2022-09-20T08:33:24.163Z,77.87
2022-09-20T08:33:58.388Z,77.84
2022-09-20T08:34:32.082Z,77.92
2022-09-20T08:35:05.530Z,78.05
2022-09-20T08:35:38.671Z,77.96
2022-09-20T08:36:18.597Z,77.96
2022-09-20T08:36:56.717Z,77.98
2022-09-20T08:37:30.421Z,77.98
2022-09-20T08:39:58.829Z,78.00
2022-09-20T08:40:32.635Z,78.05
2022-09-20T08:41:16.179Z,78.02
2022-09-20T08:42:24.453Z,78.13
2022-09-20T08:42:58.225Z,78.06
2022-09-20T08:43:45.572Z,78.03
2022-09-20T08:44:45.185Z,78.16
2022-09-20T08:45:22.667Z,78.10
2022-09-20T08:46:13.900Z,78.20
2022-09-20T08:46:50.536Z,78.02
2022-09-20T08:47:31.453Z,78.11
2022-09-20T08:48:07.676Z,78.17
2022-09-20T08:48:42.160Z,78.19
2022-09-20T08:49:28.694Z,78.20
2022-09-20T08:50:10.213Z,78.27
2022-09-20T08:50:44.569Z,78.16
2022-09-20T08:51:26.152Z,78.17
2022-09-20T08:52:01.636Z,78.25
2022-09-20T08:52:38.261Z,77.98
2022-09-20T08:53:14.916Z,77.99
2022-09-20T08:53:59.152Z,77.99
2022-09-20T08:54:35.472Z,77.75
2022-09-20T08:55:19.036Z,77.73
2022-09-20T08:55:52.594Z,77.76
2022-09-20T08:56:36.736Z,77.71
2022-09-20T08:57:15.698Z,77.62
2022-09-20T08:57:54.819Z,77.61
2022-09-20T08:58:28.404Z,77.51
2022-09-20T08:59:01.497Z,77.50
2022-09-20T08:59:35.380Z,77.41
2022-09-20T09:00:20.046Z,77.46
2022-09-20T09:00:56.423Z,77.49
2022-09-20T09:01:31.963Z,77.52
2022-09-20T09:02:18.453Z,77.51
2022-09-20T09:02:55.805Z,77.55
2022-09-20T09:03:29.060Z,77.43
2022-09-20T09:04:13.828Z,77.45
2022-09-20T09:04:49.106Z,77.48
2022-09-20T09:05:54.391Z,77.37
2022-09-20T09:06:27.578Z,77.31
2022-09-20T09:07:00.801Z,77.35
2022-09-20T09:07:33.860Z,77.30
2022-09-20T09:08:16.863Z,77.26
2022-09-20T09:08:53.674Z,77.29
2022-09-20T09:09:29.429Z,77.16
2022-09-20T09:10:03.406Z,77.26
2022-09-20T09:10:43.314Z,77.22
2022-09-20T09:11:19.142Z,77.22
2022-09-20T09:11:54.734Z,77.20
2022-09-20T09:12:30.988Z,77.19
2022-09-20T09:13:05.804Z,77.24
2022-09-20T09:13:49.476Z,77.17
2022-09-20T09:14:49.786Z,77.17
2022-09-20T09:15:32.871Z,77.09
2022-09-20T09:16:11.522Z,77.07
2022-09-20T09:16:45.019Z,77.03
2022-09-20T09:17:27.578Z,77.01
2022-09-20T09:18:01.621Z,76.93
2022-09-20T09:18:39.475Z,76.97
2022-09-20T09:19:51.573Z,76.97
2022-09-20T09:20:25.685Z,76.86
2022-09-20T09:20:59.547Z,76.84
2022-09-20T09:21:33.939Z,76.81
2022-09-20T09:22:07.058Z,76.83
2022-09-20T09:22:43.377Z,76.70
2022-09-20T09:23:26.379Z,76.59
2022-09-20T09:24:06.083Z,76.53
2022-09-20T09:24:39.162Z,76.59
2022-09-20T09:25:14.934Z,76.52
2022-09-20T09:25:49.118Z,76.47
2022-09-20T09:26:24.209Z,76.56
2022-09-20T09:27:29.460Z,76.48
2022-09-20T09:28:13.663Z,76.58
2022-09-20T09:28:48.741Z,76.70
2022-09-20T09:29:23.988Z,76.71
2022-09-20T09:29:57.017Z,76.66
2022-09-20T09:30:33.044Z,76.72